createdAt,value
2022-10-05T00:06:37.260Z,1016.45
2022-10-05T00:21:37.115Z,1016.38
2022-10-05T00:36:37.322Z,1016.16
2022-10-05T00:51:37.355Z,1015.90
2022-10-05T01:06:37.432Z,1015.94
2022-10-05T01:21:37.506Z,1015.88
2022-10-05T01:36:37.614Z,1015.83
2022-10-05T01:51:37.700Z,1016.02
2022-10-05T02:06:38.166Z,1016.01
2022-10-05T02:21:38.506Z,1015.96
2022-10-05T02:36:38.849Z,1016.06
2022-10-05T02:51:38.832Z,1015.87
2022-10-05T03:06:39.330Z,1015.77
2022-10-05T03:21:39.723Z,1015.52
2022-10-05T03:36:39.772Z,1015.33
2022-10-05T03:51:40.887Z,1015.18
2022-10-05T04:06:41.091Z,1015.21
2022-10-05T04:21:41.217Z,1015.20
2022-10-05T04:36:41.332Z,1015.37
2022-10-05T04:51:41.375Z,1015.21
2022-10-05T05:06:42.062Z,1015.25
2022-10-05T05:21:42.625Z,1015.15
2022-10-05T05:36:42.799Z,1014.89
2022-10-05T05:51:42.885Z,1014.95
2022-10-05T06:06:44.466Z,1014.97
2022-10-05T06:21:45.630Z,1015.13
2022-10-05T06:36:45.719Z,1015.23
2022-10-05T06:51:46.407Z,1015.14
2022-10-05T07:06:46.562Z,1015.30
2022-10-05T07:21:46.907Z,1015.33
2022-10-05T07:36:50.849Z,1015.27
2022-10-05T07:51:51.799Z,1015.40
2022-10-05T08:06:51.906Z,1015.21
2022-10-05T08:21:51.998Z,1015.11
2022-10-05T08:36:54.022Z,1014.81
2022-10-05T08:51:54.233Z,1014.74
2022-10-05T09:06:54.264Z,1014.86
2022-10-05T09:21:54.546Z,1014.66
2022-10-05T09:36:54.459Z,1014.58
2022-10-05T09:51:54.576Z,1014.49
2022-10-05T10:06:54.914Z,1014.57
2022-10-05T10:21:54.851Z,1014.70
2022-10-05T10:36:54.936Z,1014.59
2022-10-05T10:51:55.012Z,1014.59
2022-10-05T11:06:55.120Z,1014.37
2022-10-05T11:21:55.221Z,1014.24
2022-10-05T11:36:55.873Z,1014.09
2022-10-05T11:51:55.916Z,1013.90
2022-10-05T12:06:56.039Z,1013.76
2022-10-05T12:21:56.122Z,1013.56
2022-10-05T12:37:04.669Z,1013.50
2022-10-05T12:52:01.314Z,1013.39
2022-10-05T13:07:01.450Z,1013.32
2022-10-05T13:22:04.272Z,1013.32
2022-10-05T13:37:04.631Z,1013.20
2022-10-05T13:52:04.749Z,1013.04
2022-10-05T14:07:04.805Z,1012.97
2022-10-05T14:22:04.924Z,1012.81
2022-10-05T14:37:05.000Z,1012.62
2022-10-05T14:52:05.659Z,1012.64
2022-10-05T15:07:05.718Z,1012.51
2022-10-05T15:22:06.011Z,1012.39
2022-10-05T15:37:05.982Z,1012.37
2022-10-05T15:52:06.077Z,1012.25
2022-10-05T16:07:06.228Z,1012.22
2022-10-05T16:22:06.326Z,1012.18
2022-10-05T16:37:06.392Z,1012.19
2022-10-05T16:52:06.618Z,1012.30
2022-10-05T17:07:07.151Z,1012.36
2022-10-05T17:22:07.878Z,1012.50
2022-10-05T17:37:08.332Z,1012.48
2022-10-05T17:52:08.523Z,1012.39
2022-10-05T18:07:08.582Z,1012.31
2022-10-05T18:22:08.650Z,1012.26
2022-10-05T18:37:08.725Z,1012.26
2022-10-05T18:52:08.803Z,1012.18
2022-10-05T19:07:10.196Z,1012.32
2022-10-05T19:22:10.289Z,1012.51
2022-10-05T19:37:10.402Z,1012.68
2022-10-05T19:52:10.521Z,1012.86
2022-10-05T20:07:10.580Z,1012.89
2022-10-05T20:22:10.724Z,1013.10
2022-10-05T20:37:10.989Z,1013.27
2022-10-05T20:52:10.991Z,1013.42
2022-10-05T21:07:11.152Z,1013.39
2022-10-05T21:22:11.197Z,1013.58
2022-10-05T21:37:11.253Z,1013.64
2022-10-05T21:52:11.948Z,1013.75
2022-10-05T22:07:11.950Z,1013.77
2022-10-05T22:22:12.157Z,1013.90
2022-10-05T22:37:12.154Z,1013.91
2022-10-05T22:52:12.268Z,1014.05
2022-10-05T23:07:12.376Z,1014.17
2022-10-05T23:22:12.722Z,1014.32
2022-10-05T23:37:12.722Z,1014.40
2022-10-05T23:52:13.062Z,1014.58
